Time;durP1;ratioP1;P1;durP2;ratioP2;P2;SDS_P1;SDS_P2;PMS_P1;PMS_P2;Temp;Humidity;BMP_temperature;BMP_pressure;BME280_temperature;BME280_humidity;BME280_pressure;Samples;Min_cycle;Max_cycle;Signal;HPM_P1;HPM_P2
2023/09/22 00:01:46;;;;;;;;;1.00;1.00;;;;;27.82;41.00;99748.41;5057967;28;45300;-74
2023/09/22 00:04:12;;;;;;;;;1.00;1.00;;;;;27.81;40.72;99750.28;5058372;28;46445;-74
2023/09/22 00:06:37;;;;;;;;;0.33;0.33;;;;;27.51;41.27;99709.50;5058625;28;45383;-74
2023/09/22 00:09:05;;;;;;;;;0.67;0.67;;;;;27.81;41.35;99766.34;5058310;28;46097;-74
2023/09/22 00:11:30;;;;;;;;;0.33;0.33;;;;;27.81;41.31;99770.84;5058366;28;45402;-73
2023/09/22 00:13:56;;;;;;;;;0.00;0.00;;;;;27.72;40.69;99754.41;5058168;28;45328;-74
2023/09/22 00:16:21;;;;;;;;;2.00;1.00;;;;;27.55;40.73;99733.06;5058327;28;45409;-73
2023/09/22 00:18:47;;;;;;;;;0.67;0.67;;;;;27.79;40.65;99767.59;5058105;28;45972;-74
2023/09/22 00:21:12;;;;;;;;;1.00;0.33;;;;;27.78;41.34;99761.44;5058262;28;45465;-74
2023/09/22 00:23:38;;;;;;;;;0.00;0.00;;;;;27.77;40.69;99759.00;5058445;28;45378;-74
2023/09/22 00:26:03;;;;;;;;;0.00;0.00;;;;;27.77;41.28;99756.31;5058083;28;45432;-74
2023/09/22 00:28:28;;;;;;;;;1.00;1.00;;;;;27.75;40.86;99764.59;5057664;28;46143;-74
2023/09/22 00:30:54;;;;;;;;;1.00;1.00;;;;;27.73;40.59;99764.84;5058000;28;45370;-74
2023/09/22 00:33:19;;;;;;;;;0.00;0.00;;;;;27.70;41.11;99756.50;5058061;28;45335;-74
2023/09/22 00:35:44;;;;;;;;;0.00;0.00;;;;;27.76;40.98;99768.09;5056841;28;45365;-74
2023/09/22 00:38:10;;;;;;;;;0.67;0.67;;;;;27.55;40.57;99738.41;5073425;28;46011;-74
2023/09/22 00:40:36;;;;;;;;;0.00;0.00;;;;;27.77;40.54;99773.16;5057959;28;45403;-74
2023/09/22 00:43:10;;;;;;;;;1.00;1.00;;;;;27.78;41.10;99776.66;5057400;28;45451;-74
2023/09/22 00:45:41;;;;;;;;;1.00;1.00;;;;;27.74;40.57;99777.16;5057989;28;45272;-74
2023/09/22 00:48:06;;;;;;;;;3.00;0.00;;;;;27.79;40.74;99778.28;5057710;28;46432;-74
2023/09/22 00:50:32;;;;;;;;;0.33;0.33;;;;;27.79;41.16;99778.28;5057583;28;45418;-74
2023/09/22 00:52:57;;;;;;;;;0.00;0.00;;;;;27.79;41.04;99780.97;5057734;28;45415;-73
2023/09/22 00:55:23;;;;;;;;;0.00;0.00;;;;;27.75;40.59;99775.28;5057752;28;45388;-74
2023/09/22 00:57:49;;;;;;;;;1.33;1.00;;;;;27.65;40.88;99769.78;5057246;28;47133;-74
2023/09/22 01:00:16;;;;;;;;;0.67;0.67;;;;;27.77;40.79;99785.72;5057581;28;45637;-74
2023/09/22 01:02:42;;;;;;;;;1.00;1.00;;;;;27.68;40.79;99772.78;5057380;28;45378;-74
2023/09/22 01:05:08;;;;;;;;;0.00;0.00;;;;;27.66;40.31;99774.91;5057395;28;45477;-74
2023/09/22 01:07:33;;;;;;;;;0.00;0.00;;;;;27.64;40.88;99771.66;5057385;28;45641;-74
2023/09/22 01:10:09;;;;;;;;;0.00;0.00;;;;;27.75;41.04;99785.97;5057461;28;45461;-74
2023/09/22 01:12:35;;;;;;;;;1.00;1.00;;;;;27.74;40.64;99789.69;5057267;28;45306;-74
2023/09/22 01:15:00;;;;;;;;;1.00;0.67;;;;;27.65;40.91;99775.13;5057379;28;45645;-74
2023/09/22 01:17:25;;;;;;;;;2.00;2.00;;;;;27.71;40.68;99788.31;5057173;28;45430;-74
2023/09/22 01:19:51;;;;;;;;;2.00;0.33;;;;;27.72;40.35;99789.94;5057333;28;45411;-74
2023/09/22 01:22:16;;;;;;;;;0.00;0.00;;;;;27.71;41.08;99799.00;5057266;28;45465;-74
2023/09/22 01:24:41;;;;;;;;;1.00;1.00;;;;;27.68;40.90;99786.16;5057401;28;45422;-74
2023/09/22 01:27:08;;;;;;;;;0.67;0.67;;;;;27.61;41.18;99780.19;5056726;28;45785;-74
2023/09/22 01:29:33;;;;;;;;;0.00;0.00;;;;;27.62;40.27;99777.25;5057087;28;45452;-74
2023/09/22 01:32:00;;;;;;;;;0.00;0.00;;;;;27.62;41.20;99777.25;5057192;28;45463;-74
2023/09/22 01:34:25;;;;;;;;;0.00;0.00;;;;;27.68;40.87;99790.69;5056991;28;45574;-74
2023/09/22 01:36:51;;;;;;;;;0.00;0.00;;;;;27.67;41.08;99789.06;5056829;28;46981;-75
2023/09/22 01:39:16;;;;;;;;;0.00;0.00;;;;;27.70;40.94;99785.91;5056963;28;45241;-74
2023/09/22 01:41:43;;;;;;;;;1.00;1.00;;;;;27.61;40.69;99778.28;5056576;28;45205;-74
2023/09/22 01:44:08;;;;;;;;;0.00;0.00;;;;;27.70;41.02;99784.03;5056978;28;45277;-74
2023/09/22 01:46:33;;;;;;;;;1.00;1.00;;;;;27.72;40.80;99783.78;5055450;28;46043;-74
2023/09/22 01:48:59;;;;;;;;;0.00;0.00;;;;;27.73;40.36;99788.09;5056814;28;45354;-74
2023/09/22 01:51:24;;;;;;;;;0.00;0.00;;;;;27.71;40.70;99782.19;5056898;28;45407;-74
2023/09/22 01:53:50;;;;;;;;;1.00;0.33;;;;;27.73;40.36;99790.75;5056885;28;45344;-73
2023/09/22 01:56:15;;;;;;;;;0.00;0.00;;;;;27.72;41.02;99784.59;5056306;28;45391;-74
2023/09/22 01:58:40;;;;;;;;;0.67;0.00;;;;;27.72;40.43;99789.94;5056648;28;45392;-73
2023/09/22 02:01:06;;;;;;;;;1.00;1.00;;;;;27.73;40.46;99790.75;5056840;28;45232;-74
2023/09/22 02:03:31;;;;;;;;;0.00;0.00;;;;;27.72;40.51;99776.59;5056487;28;45460;-74
2023/09/22 02:05:58;;;;;;;;;0.00;0.00;;;;;27.68;40.32;99775.47;5055132;28;46002;-74
2023/09/22 02:08:24;;;;;;;;;0.00;0.00;;;;;27.67;40.98;99781.03;5056636;28;45299;-74
2023/09/22 02:10:50;;;;;;;;;1.00;1.00;;;;;27.72;40.92;99783.78;5056065;28;45333;-73
2023/09/22 02:13:15;;;;;;;;;1.67;1.67;;;;;27.66;40.87;99780.25;5056667;28;45288;-74
2023/09/22 02:15:40;;;;;;;;;0.00;0.00;;;;;27.70;40.30;99778.69;5055781;28;45336;-74
2023/09/22 02:18:06;;;;;;;;;0.00;0.00;;;;;27.69;40.29;99777.06;5056396;28;45277;-74
2023/09/22 02:20:31;;;;;;;;;0.00;0.00;;;;;27.69;40.69;99782.41;5056608;28;45314;-74
2023/09/22 02:22:58;;;;;;;;;1.00;1.00;;;;;27.57;40.60;99757.66;5056396;28;45382;-74
2023/09/22 02:25:24;;;;;;;;;0.67;0.67;;;;;27.68;41.16;99775.47;5055744;28;46911;-74
2023/09/22 02:27:52;;;;;;;;;0.00;0.00;;;;;27.65;40.64;99773.28;5056245;28;45516;-74
2023/09/22 02:30:18;;;;;;;;;0.33;0.33;;;;;27.59;40.52;99761.72;5056186;28;45291;-74
2023/09/22 02:32:49;;;;;;;;;1.00;1.00;;;;;27.64;40.38;99766.31;5056043;28;45338;-74
2023/09/22 02:35:21;;;;;;;;;0.00;0.00;;;;;27.65;41.20;99775.94;5056087;28;45386;-74
2023/09/22 02:37:46;;;;;;;;;0.00;0.00;;;;;27.63;41.14;99772.72;5055962;28;45342;-74
2023/09/22 02:40:14;;;;;;;;;0.00;0.00;;;;;27.57;40.79;99763.00;5055796;28;45252;-74
2023/09/22 02:42:41;;;;;;;;;0.00;0.00;;;;;27.48;40.84;99752.72;5056016;28;45375;-74
2023/09/22 02:45:08;;;;;;;;;0.00;0.00;;;;;27.64;40.68;99774.31;5055844;28;47326;-73
2023/09/22 02:47:35;;;;;;;;;1.00;1.00;;;;;27.63;40.85;99765.53;5055741;28;45441;-74
2023/09/22 02:50:00;;;;;;;;;0.33;0.33;;;;;27.58;40.75;99760.09;5055840;28;45283;-74
2023/09/22 02:52:25;;;;;;;;;0.00;0.00;;;;;27.67;40.38;99770.34;5055814;28;45451;-74
2023/09/22 02:54:54;;;;;;;;;0.33;0.33;;;;;27.67;40.87;99770.34;5055456;28;45422;-74
2023/09/22 02:57:20;;;;;;;;;1.00;1.00;;;;;27.43;40.73;99736.63;5055903;28;45449;-74
2023/09/22 02:59:46;;;;;;;;;0.00;0.00;;;;;27.67;40.19;99762.34;5055890;28;45390;-74
2023/09/22 03:02:11;;;;;;;;;0.00;0.00;;;;;27.45;40.59;99739.88;5055672;28;45426;-75
2023/09/22 03:04:36;;;;;;;;;0.00;0.00;;;;;27.67;40.22;99768.50;5055706;28;45377;-74
2023/09/22 03:07:02;;;;;;;;;0.00;0.00;;;;;27.67;40.65;99765.81;5055733;28;45346;-74
2023/09/22 03:09:27;;;;;;;;;1.67;0.00;;;;;27.67;40.32;99760.47;5055433;28;45364;-74
2023/09/22 03:11:52;;;;;;;;;0.00;0.00;;;;;27.67;40.12;99762.34;5055674;28;45557;-74
2023/09/22 03:14:18;;;;;;;;;0.67;0.67;;;;;27.68;40.97;99747.94;5054144;28;48156;-74
2023/09/22 03:16:43;;;;;;;;;0.00;0.00;;;;;27.61;40.62;99742.78;5055688;28;45336;-75
2023/09/22 03:19:09;;;;;;;;;0.00;0.00;;;;;27.63;40.64;99746.81;5055706;28;45267;-74
2023/09/22 03:21:35;;;;;;;;;0.00;0.00;;;;;27.65;40.71;99749.25;5055571;28;45284;-74
2023/09/22 03:24:00;;;;;;;;;0.00;0.00;;;;;27.39;40.54;99712.28;5055037;28;46372;-75
2023/09/22 03:26:26;;;;;;;;;0.00;0.00;;;;;27.62;40.86;99753.22;5055365;28;45374;-74
2023/09/22 03:28:51;;;;;;;;;0.33;0.33;;;;;27.57;40.49;99746.97;5058715;28;45360;-74
2023/09/22 03:31:17;;;;;;;;;0.00;0.00;;;;;27.63;40.82;99751.34;5059186;28;45217;-74
2023/09/22 03:33:43;;;;;;;;;0.00;0.00;;;;;27.63;41.14;99746.81;5058801;28;46287;-73
2023/09/22 03:36:12;;;;;;;;;0.33;0.33;;;;;27.64;40.90;99742.25;5059013;28;45396;-74
2023/09/22 03:38:39;;;;;;;;;1.00;0.00;;;;;27.63;40.82;99746.00;5058673;28;45368;-73
2023/09/22 03:41:05;;;;;;;;;1.00;1.00;;;;;27.45;41.17;99713.16;5058606;28;45259;-74
2023/09/22 03:43:30;;;;;;;;;0.00;0.00;;;;;27.61;40.32;99738.22;5058594;28;45577;-74
2023/09/22 03:45:56;;;;;;;;;0.33;0.33;;;;;27.62;41.06;99750.53;5058863;28;45317;-74
2023/09/22 03:48:22;;;;;;;;;1.00;1.00;;;;;27.55;40.46;99741.06;5058878;28;45400;-74
2023/09/22 03:50:48;;;;;;;;;0.00;0.00;;;;;27.62;40.78;99752.38;5058705;28;45363;-75
2023/09/22 03:53:13;;;;;;;;;0.00;0.00;;;;;27.59;40.76;99747.53;5058146;28;45397;-74
2023/09/22 03:55:39;;;;;;;;;0.00;0.00;;;;;27.60;40.43;99747.31;5058693;28;45297;-74
2023/09/22 03:58:05;;;;;;;;;0.67;0.67;;;;;27.62;41.11;99749.72;5058733;28;45384;-74
2023/09/22 04:00:31;;;;;;;;;0.00;0.00;;;;;27.58;40.91;99740.59;5058609;28;45490;-74
2023/09/22 04:02:56;;;;;;;;;0.00;0.00;;;;;27.62;40.22;99755.06;5058336;28;46170;-74
2023/09/22 04:05:22;;;;;;;;;0.33;0.33;;;;;27.63;40.32;99754.03;5058064;28;45248;-74
2023/09/22 04:07:48;;;;;;;;;0.00;0.00;;;;;27.61;40.96;99750.78;5058695;28;45371;-74
2023/09/22 04:10:15;;;;;;;;;0.00;0.00;;;;;27.55;41.09;99731.19;5058333;28;45328;-74
2023/09/22 04:12:40;;;;;;;;;0.00;0.00;;;;;27.63;40.96;99748.69;5058243;28;46279;-75
2023/09/22 04:15:08;;;;;;;;;0.00;0.00;;;;;27.64;40.85;99755.63;5058273;28;45361;-74
2023/09/22 04:17:34;;;;;;;;;0.00;0.00;;;;;27.59;40.14;99751.03;5058426;28;45350;-74
2023/09/22 04:20:00;;;;;;;;;1.00;1.00;;;;;27.59;40.36;99753.69;5058054;28;45421;-74
2023/09/22 04:22:28;;;;;;;;;0.00;0.00;;;;;27.52;40.61;99745.84;5058009;28;46074;-74
2023/09/22 04:25:00;;;;;;;;;0.00;0.00;;;;;27.65;41.02;99773.28;5058131;28;45348;-74
2023/09/22 04:27:32;;;;;;;;;0.00;0.00;;;;;27.52;40.77;99748.53;5058139;28;45375;-74
2023/09/22 04:30:00;;;;;;;;;0.67;0.00;;;;;27.63;40.85;99759.38;5058111;28;45406;-74
2023/09/22 04:32:33;;;;;;;;;0.00;0.00;;;;;27.60;40.86;99763.34;5057879;28;45339;-75
2023/09/22 04:34:59;;;;;;;;;0.00;0.00;;;;;27.61;41.06;99769.50;5057473;28;45369;-74
2023/09/22 04:37:25;;;;;;;;;1.00;1.00;;;;;27.60;40.90;99763.34;5057861;28;45394;-74
2023/09/22 04:39:52;;;;;;;;;1.00;1.00;;;;;27.60;40.54;99762.53;5057579;28;45376;-74
2023/09/22 04:42:17;;;;;;;;;0.00;0.00;;;;;27.57;40.91;99758.47;5057602;28;47087;-74
2023/09/22 04:44:42;;;;;;;;;0.00;0.00;;;;;27.58;40.96;99761.97;5057822;28;45283;-74
2023/09/22 04:47:07;;;;;;;;;0.00;0.00;;;;;27.58;40.37;99768.13;5058142;28;45290;-74
2023/09/22 04:49:33;;;;;;;;;0.33;0.33;;;;;27.54;40.25;99760.81;5057561;28;45429;-74
2023/09/22 04:51:58;;;;;;;;;2.00;0.00;;;;;27.55;41.02;99762.44;5057692;28;45781;-74
2023/09/22 04:54:24;;;;;;;;;0.00;0.00;;;;;27.58;40.38;99772.66;5057712;28;45233;-74
2023/09/22 04:56:51;;;;;;;;;0.00;0.00;;;;;27.58;40.70;99770.78;5057767;28;45217;-74
2023/09/22 04:59:16;;;;;;;;;0.00;0.00;;;;;27.59;41.06;99763.56;5057797;28;45359;-74
2023/09/22 05:01:41;;;;;;;;;0.00;0.00;;;;;27.56;41.01;99756.84;5057493;28;45292;-74
2023/09/22 05:04:07;;;;;;;;;1.00;1.00;;;;;27.53;40.56;99754.69;5057089;28;46394;-75
2023/09/22 05:06:33;;;;;;;;;0.00;0.00;;;;;27.54;40.94;99760.81;5057582;28;45368;-74
2023/09/22 05:08:58;;;;;;;;;0.00;0.00;;;;;27.57;40.78;99760.34;5057497;28;45380;-74
2023/09/22 05:11:24;;;;;;;;;0.00;0.00;;;;;27.54;41.07;99758.97;5057270;28;47126;-75
2023/09/22 05:13:49;;;;;;;;;0.00;0.00;;;;;27.48;40.92;99755.41;5057427;28;45936;-74
2023/09/22 05:16:14;;;;;;;;;0.00;0.00;;;;;27.57;40.24;99768.34;5057447;28;45463;-75
2023/09/22 05:18:40;;;;;;;;;1.00;1.00;;;;;27.49;40.71;99761.56;5057147;28;45390;-74
2023/09/22 05:21:09;;;;;;;;;0.67;0.67;;;;;27.58;40.83;99769.97;5057126;28;45467;-74
2023/09/22 05:23:34;;;;;;;;;0.00;0.00;;;;;27.58;40.35;99772.66;5057358;28;45304;-74
2023/09/22 05:26:05;;;;;;;;;0.00;0.00;;;;;27.55;40.91;99770.47;5057263;28;45292;-74
2023/09/22 05:28:32;;;;;;;;;0.00;0.00;;;;;27.59;40.98;99772.38;5057218;28;45673;-74
2023/09/22 05:30:58;;;;;;;;;1.00;1.00;;;;;27.52;40.35;99761.06;5056748;28;47076;-74
2023/09/22 05:33:24;;;;;;;;;0.33;0.00;;;;;27.60;40.67;99787.38;5056383;28;45389;-74
2023/09/22 05:35:49;;;;;;;;;0.67;0.67;;;;;27.61;40.54;99788.19;5057286;28;45280;-74
2023/09/22 05:38:16;;;;;;;;;0.00;0.00;;;;;27.60;40.44;99782.03;5057067;28;45326;-75
2023/09/22 05:40:43;;;;;;;;;1.00;0.00;;;;;27.57;40.27;99776.34;5056725;28;45995;-74
2023/09/22 05:43:10;;;;;;;;;0.00;0.00;;;;;27.46;40.88;99773.53;5056829;28;45455;-74
2023/09/22 05:45:36;;;;;;;;;0.00;0.00;;;;;27.51;40.79;99786.16;5055623;28;45503;-74
2023/09/22 05:48:02;;;;;;;;;0.00;0.00;;;;;27.58;40.54;99791.34;5056451;28;45516;-74
2023/09/22 05:50:27;;;;;;;;;1.00;1.00;;;;;27.58;40.93;99794.84;5055407;28;45934;-75
2023/09/22 05:52:53;;;;;;;;;0.00;0.00;;;;;27.58;40.57;99794.03;5056895;28;45428;-73
2023/09/22 05:55:19;;;;;;;;;2.00;1.00;;;;;27.51;40.83;99781.63;5056901;28;45297;-73
2023/09/22 05:57:47;;;;;;;;;1.00;0.00;;;;;27.56;41.37;99793.47;5056842;28;45452;-76
2023/09/22 06:00:16;;;;;;;;;0.00;0.00;;;;;27.47;41.08;99777.84;5056731;28;46192;-73
2023/09/22 06:02:51;;;;;;;;;1.00;1.00;;;;;27.54;41.26;99799.03;5055474;28;45340;-73
2023/09/22 06:05:18;;;;;;;;;0.00;0.00;;;;;27.56;41.63;99798.81;5055386;28;45460;-73
2023/09/22 06:07:43;;;;;;;;;0.00;0.00;;;;;27.48;41.21;99789.34;5056289;28;45470;-74
2023/09/22 06:10:09;;;;;;;;;0.67;0.67;;;;;27.54;40.80;99801.69;5056197;28;45351;-73
2023/09/22 06:12:38;;;;;;;;;0.00;0.00;;;;;27.51;41.66;99802.19;5056357;28;45329;-73
2023/09/22 06:15:08;;;;;;;;;1.00;0.00;;;;;27.33;41.64;99772.00;5056305;28;45316;-73
2023/09/22 06:17:35;;;;;;;;;1.00;1.00;;;;;27.59;41.41;99806.31;5055944;28;45414;-73
2023/09/22 06:20:08;;;;;;;;;3.00;1.33;;;;;27.60;41.16;99813.28;5056047;28;47007;-73
2023/09/22 06:22:34;;;;;;;;;0.67;0.67;;;;;27.37;41.89;99769.66;5054301;28;45467;-73
2023/09/22 06:24:59;;;;;;;;;1.00;0.00;;;;;27.61;41.91;99817.59;5052634;28;45443;-74
2023/09/22 06:27:24;;;;;;;;;1.00;1.00;;;;;27.64;41.34;99822.41;5046600;28;45338;-74
2023/09/22 06:29:50;;;;;;;;;1.00;1.00;;;;;27.65;41.39;99825.91;5044284;28;46071;-72
2023/09/22 06:32:17;;;;;;;;;0.00;0.00;;;;;27.65;41.88;99824.03;5045614;28;45461;-73
2023/09/22 06:34:43;;;;;;;;;1.00;1.00;;;;;27.66;41.61;99831.03;5037663;28;45328;-73
2023/09/22 06:37:09;;;;;;;;;1.00;1.00;;;;;27.66;42.03;99833.69;5035966;28;45380;-73
2023/09/22 06:39:34;;;;;;;;;2.00;1.00;;;;;27.61;41.84;99830.94;5035676;28;47159;-74
2023/09/22 06:42:00;;;;;;;;;1.00;1.00;;;;;27.67;42.10;99839.81;5041351;28;45408;-73
2023/09/22 06:44:27;;;;;;;;;2.00;0.00;;;;;27.65;42.25;99839.25;5055673;28;45403;-74
2023/09/22 06:46:53;;;;;;;;;1.00;0.00;;;;;27.68;42.16;99836.94;5055434;28;45284;-73
2023/09/22 06:49:18;;;;;;;;;0.67;0.67;;;;;27.63;42.45;99835.00;5055549;28;45318;-80
2023/09/22 06:51:44;;;;;;;;;0.00;0.00;;;;;27.56;42.24;99826.31;5055712;28;45346;-76
2023/09/22 06:54:09;;;;;;;;;1.00;1.00;;;;;27.46;41.73;99808.25;5054638;28;45609;-78
2023/09/22 06:56:38;;;;;;;;;1.33;1.00;;;;;27.51;42.17;99815.53;5055976;28;45555;-74
2023/09/22 06:59:07;;;;;;;;;1.00;1.00;;;;;27.72;41.67;99855.94;5055613;28;45507;-74
2023/09/22 07:01:32;;;;;;;;;1.00;1.00;;;;;27.76;42.04;99856.28;5055085;28;45406;-74
2023/09/22 07:03:58;;;;;;;;;2.00;1.00;;;;;27.67;42.21;99845.97;5055702;28;45401;-75
2023/09/22 07:06:23;;;;;;;;;0.33;0.33;;;;;27.61;41.83;99842.41;5052601;28;45711;-75
2023/09/22 07:08:49;;;;;;;;;1.00;1.00;;;;;27.65;42.03;99849.94;5054718;28;46380;-73
2023/09/22 07:11:15;;;;;;;;;1.00;1.00;;;;;27.72;42.07;99867.44;5054031;28;45411;-74
2023/09/22 07:13:41;;;;;;;;;1.00;1.00;;;;;27.72;41.88;99871.97;5055259;28;45309;-74
2023/09/22 07:16:07;;;;;;;;;2.33;1.00;;;;;27.69;42.10;99869.81;5054866;28;45383;-75
2023/09/22 07:18:32;;;;;;;;;1.00;1.00;;;;;27.66;41.72;99864.94;5055389;28;45626;-75
2023/09/22 07:20:58;;;;;;;;;1.33;1.33;;;;;27.68;42.31;99871.66;5044306;28;45381;-75
2023/09/22 07:23:24;;;;;;;;;2.00;0.33;;;;;27.71;42.31;99875.72;5043678;28;45671;-74
2023/09/22 07:26:00;;;;;;;;;0.00;0.00;;;;;27.61;41.51;99863.00;5055319;28;45344;-74
2023/09/22 07:28:26;;;;;;;;;0.33;0.33;;;;;27.57;42.04;99857.31;5054776;28;45768;-75
2023/09/22 07:30:52;;;;;;;;;1.67;1.00;;;;;27.70;41.38;99887.44;5055005;28;45364;-76
2023/09/22 07:33:17;;;;;;;;;1.67;0.00;;;;;27.69;42.10;99894.63;5046878;28;45368;-76
2023/09/22 07:35:43;;;;;;;;;0.00;0.00;;;;;27.70;41.94;99896.28;5035166;28;45522;-72
2023/09/22 07:38:09;;;;;;;;;1.67;0.67;;;;;27.50;41.50;99856.66;5043675;28;46520;-75
2023/09/22 07:40:34;;;;;;;;;0.67;0.67;;;;;27.59;41.24;99878.44;5055022;28;45498;-76
2023/09/22 07:43:00;;;;;;;;;0.00;0.00;;;;;27.70;41.57;99900.81;5054720;28;45483;-76
2023/09/22 07:45:25;;;;;;;;;0.00;0.00;;;;;27.62;41.76;99894.00;5054028;28;45582;-75
2023/09/22 07:47:51;;;;;;;;;0.00;0.00;;;;;27.51;41.73;99882.31;5054914;28;46315;-75
2023/09/22 07:50:17;;;;;;;;;2.00;0.33;;;;;27.66;41.48;99907.69;5054695;28;45426;-76
2023/09/22 07:52:43;;;;;;;;;2.00;0.33;;;;;27.62;41.53;99904.69;5054963;28;45396;-75
2023/09/22 07:55:09;;;;;;;;;2.33;0.33;;;;;27.54;41.81;99897.06;5054975;28;45371;-75
2023/09/22 07:57:35;;;;;;;;;0.00;0.00;;;;;27.62;41.40;99918.03;5054106;28;46179;-75
2023/09/22 08:00:01;;;;;;;;;0.00;0.00;;;;;27.54;41.93;99905.06;5055089;28;45367;-75
2023/09/22 08:02:26;;;;;;;;;0.00;0.00;;;;;27.55;41.38;99912.03;5055031;28;45756;-76
2023/09/22 08:04:52;;;;;;;;;0.67;0.67;;;;;27.61;41.30;99921.78;5054376;28;45776;-75
2023/09/22 08:07:18;;;;;;;;;1.00;1.00;;;;;27.52;41.35;99916.81;5054432;28;47238;-75
2023/09/22 08:09:44;;;;;;;;;1.00;1.00;;;;;27.58;41.81;99923.06;5054629;28;45241;-77
2023/09/22 08:12:10;;;;;;;;;1.00;1.00;;;;;27.44;41.38;99903.03;5054521;28;45374;-75
2023/09/22 08:14:36;;;;;;;;;2.00;0.00;;;;;27.58;41.39;99925.75;5057542;28;45367;-76
2023/09/22 08:17:06;;;;;;;;;1.00;1.00;;;;;27.47;41.83;99916.72;5057797;28;46132;-77
2023/09/22 08:19:31;;;;;;;;;0.00;0.00;;;;;27.53;41.16;99928.31;5057664;28;45466;-75
2023/09/22 08:21:57;;;;;;;;;0.00;0.00;;;;;27.48;41.19;99917.56;5058135;28;45461;-75
2023/09/22 08:24:22;;;;;;;;;0.00;0.00;;;;;27.49;41.34;99921.81;5057856;28;45431;-74
2023/09/22 08:26:49;;;;;;;;;0.33;0.00;;;;;27.44;41.44;99911.88;5057583;28;45414;-75
2023/09/22 08:29:15;;;;;;;;;0.67;0.00;;;;;27.59;41.20;99932.69;5057897;28;45341;-76
2023/09/22 08:31:40;;;;;;;;;4.00;1.00;;;;;27.60;41.97;99928.97;5057815;28;45399;-76
2023/09/22 08:34:06;;;;;;;;;1.00;1.00;;;;;27.55;41.72;99922.72;5057679;28;45300;-75
2023/09/22 08:36:33;;;;;;;;;1.00;1.00;;;;;27.62;41.08;99939.41;5057704;28;46092;-75
2023/09/22 08:38:58;;;;;;;;;0.00;0.00;;;;;27.54;40.97;99927.25;5057758;28;45371;-75
2023/09/22 08:41:26;;;;;;;;;1.00;1.00;;;;;27.57;41.70;99925.97;5057274;28;45339;-76
2023/09/22 08:43:54;;;;;;;;;0.00;0.00;;;;;27.56;41.15;99927.81;5057987;28;45372;-75
2023/09/22 08:46:20;;;;;;;;;3.00;1.00;;;;;27.64;41.25;99942.66;5057322;28;46207;-75
2023/09/22 08:48:45;;;;;;;;;0.33;0.33;;;;;27.57;41.15;99934.78;5057443;28;45191;-76
2023/09/22 08:51:10;;;;;;;;;0.67;0.00;;;;;27.55;41.65;99933.41;5057337;28;45335;-73
2023/09/22 08:53:36;;;;;;;;;1.00;1.00;;;;;27.69;41.20;99958.78;5057422;28;45343;-76
2023/09/22 08:56:04;;;;;;;;;0.00;0.00;;;;;27.72;41.78;99952.13;5057061;28;45272;-76
2023/09/22 08:58:30;;;;;;;;;0.33;0.33;;;;;27.69;41.22;99952.63;5057346;28;45510;-75
2023/09/22 09:00:55;;;;;;;;;1.00;1.00;;;;;27.76;41.39;99957.81;5057161;28;45509;-75
2023/09/22 09:03:21;;;;;;;;;0.00;0.00;;;;;27.68;41.09;99937.66;5057228;28;45426;-76
2023/09/22 09:05:47;;;;;;;;;0.00;0.00;;;;;27.80;41.58;99954.44;5057354;28;46233;-74
2023/09/22 09:08:18;;;;;;;;;0.33;0.00;;;;;27.82;41.32;99959.53;5057403;28;45412;-75
2023/09/22 09:10:46;;;;;;;;;1.33;0.00;;;;;27.80;41.21;99954.44;5056846;28;45480;-75
2023/09/22 09:13:17;;;;;;;;;1.00;0.00;;;;;27.79;41.06;99960.03;5057406;28;45389;-76
2023/09/22 09:15:47;;;;;;;;;0.00;0.00;;;;;27.83;41.52;99961.19;5057094;28;45436;-76
2023/09/22 09:18:17;;;;;;;;;0.00;0.00;;;;;27.82;41.45;99965.69;5056990;28;45363;-75
2023/09/22 09:20:45;;;;;;;;;1.67;1.00;;;;;27.81;40.66;99964.09;5056935;28;45354;-76
2023/09/22 09:23:21;;;;;;;;;0.00;0.00;;;;;27.62;40.71;99942.91;5057185;28;45399;-76
2023/09/22 09:25:49;;;;;;;;;1.00;1.00;;;;;27.79;40.77;99970.72;5056414;28;46980;-75
2023/09/22 09:28:17;;;;;;;;;1.00;1.00;;;;;27.74;40.76;99960.72;5056632;28;45313;-76
2023/09/22 09:30:52;;;;;;;;;0.67;0.67;;;;;27.79;40.94;99982.19;5056911;28;45306;-76
2023/09/22 09:33:33;;;;;;;;;0.00;0.00;;;;;27.68;40.83;99959.84;5056645;28;45654;-75
2023/09/22 09:35:59;;;;;;;;;1.00;1.00;;;;;27.74;40.76;99977.56;5056559;28;45382;-76
2023/09/22 09:38:27;;;;;;;;;0.00;0.00;;;;;27.80;40.77;99991.88;5056674;28;45210;-74
2023/09/22 09:40:54;;;;;;;;;0.00;0.00;;;;;27.60;41.00;99963.72;5056330;28;45405;-75
2023/09/22 09:43:21;;;;;;;;;0.00;0.00;;;;;27.81;40.69;99998.84;5056654;28;45443;-74
2023/09/22 09:45:49;;;;;;;;;1.00;0.00;;;;;27.81;41.21;99998.84;5056523;28;46102;-75
2023/09/22 09:48:16;;;;;;;;;0.00;0.00;;;;;27.82;40.74;100003.13;5056549;28;45390;-75
2023/09/22 09:50:50;;;;;;;;;1.00;1.00;;;;;27.85;40.72;100010.66;5056457;28;45275;-75
2023/09/22 09:53:26;;;;;;;;;0.67;0.67;;;;;27.88;41.21;100014.72;5056494;28;45331;-74
2023/09/22 09:56:02;;;;;;;;;1.00;1.00;;;;;27.77;40.89;100000.31;5056374;28;46660;-74
2023/09/22 09:58:31;;;;;;;;;0.00;0.00;;;;;27.80;41.24;100013.25;5056274;28;45443;-75
2023/09/22 10:00:57;;;;;;;;;0.00;0.00;;;;;27.89;41.24;100028.91;5056467;28;45380;-75
2023/09/22 10:03:24;;;;;;;;;0.00;0.00;;;;;27.88;41.01;100030.75;5056292;28;45323;-75
2023/09/22 10:05:55;;;;;;;;;0.00;0.00;;;;;27.86;41.19;100038.22;5055962;28;46437;-75
2023/09/22 10:08:22;;;;;;;;;0.00;0.00;;;;;27.87;41.47;100039.81;5056010;28;45403;-75
2023/09/22 10:10:50;;;;;;;;;2.00;0.00;;;;;27.86;41.40;100051.56;5056232;28;45244;-75
2023/09/22 10:13:16;;;;;;;;;0.00;0.00;;;;;27.74;41.14;100033.69;5056477;28;45249;-75
2023/09/22 10:15:53;;;;;;;;;0.67;0.67;;;;;27.85;40.65;100047.25;5055990;28;46281;-75
2023/09/22 10:18:19;;;;;;;;;0.00;0.00;;;;;27.82;41.09;100045.06;5055843;28;45420;-75
2023/09/22 10:20:46;;;;;;;;;0.00;0.00;;;;;27.84;40.75;100054.47;5055846;28;45391;-75
2023/09/22 10:23:27;;;;;;;;;0.00;0.00;;;;;27.83;40.85;100052.88;5055948;28;45562;-75
2023/09/22 10:26:14;;;;;;;;;0.00;0.00;;;;;27.83;40.96;100058.22;5055910;28;46851;-74
2023/09/22 10:28:40;;;;;;;;;0.33;0.33;;;;;27.61;41.07;100023.31;5055857;28;45355;-74
2023/09/22 10:31:05;;;;;;;;;0.33;0.33;;;;;27.80;41.04;100053.34;5054450;28;45427;-75
2023/09/22 10:33:32;;;;;;;;;0.33;0.33;;;;;27.77;40.81;100044.94;5055959;28;45446;-74
2023/09/22 10:36:01;;;;;;;;;0.00;0.00;;;;;27.81;41.21;100067.50;5055573;28;46090;-75
2023/09/22 10:38:27;;;;;;;;;0.00;0.00;;;;;27.69;41.14;100051.50;5055583;28;45325;-75
2023/09/22 10:40:58;;;;;;;;;0.00;0.00;;;;;27.82;41.21;100075.28;5055891;28;45455;-74
2023/09/22 10:43:24;;;;;;;;;0.00;0.00;;;;;27.73;41.23;100061.47;5055707;28;45578;-75
2023/09/22 10:45:51;;;;;;;;;0.33;0.33;;;;;27.74;40.90;100064.94;5055647;28;46104;-75
2023/09/22 10:48:17;;;;;;;;;0.00;0.00;;;;;27.67;40.79;100062.41;5055729;28;45285;-75
2023/09/22 10:50:49;;;;;;;;;0.00;0.00;;;;;27.82;40.97;100079.81;5055401;28;45451;-76
2023/09/22 10:53:14;;;;;;;;;0.00;0.00;;;;;27.82;41.24;100104.69;5055279;28;45505;-75
2023/09/22 10:55:42;;;;;;;;;1.00;1.00;;;;;27.83;40.85;100095.63;5055546;28;46148;-75
2023/09/22 10:58:16;;;;;;;;;0.67;0.67;;;;;27.70;41.17;100086.00;5054345;28;45444;-75
2023/09/22 11:01:01;;;;;;;;;0.00;0.00;;;;;27.83;40.82;100106.31;5050635;28;45459;-76
2023/09/22 11:03:27;;;;;;;;;1.00;1.00;;;;;27.83;40.64;100109.00;5050386;28;45320;-78
2023/09/22 11:06:00;;;;;;;;;1.00;1.00;;;;;27.83;41.15;100113.53;5044362;27;46515;-77
2023/09/22 11:08:26;;;;;;;;;0.00;0.00;;;;;27.84;41.07;100120.50;5055207;28;45453;-78
2023/09/22 11:10:53;;;;;;;;;1.00;1.00;;;;;27.79;41.15;100110.47;5064793;28;45623;-76
2023/09/22 11:13:23;;;;;;;;;0.67;0.67;;;;;27.82;41.29;100119.91;5052943;27;45494;-77
2023/09/22 11:15:57;;;;;;;;;2.67;1.00;;;;;27.83;41.50;100130.38;5065206;27;46203;-77
2023/09/22 11:18:33;;;;;;;;;0.00;0.00;;;;;27.65;41.56;100103.78;5055835;28;46523;-77
2023/09/22 11:21:05;;;;;;;;;0.00;0.00;;;;;27.56;41.71;100096.13;5068053;27;45430;-76
2023/09/22 11:23:31;;;;;;;;;0.00;0.00;;;;;27.83;41.21;100145.59;5058450;27;45532;-78
2023/09/22 11:26:07;;;;;;;;;0.00;0.00;;;;;27.70;41.71;100128.75;5047146;28;47193;-79
2023/09/22 11:28:33;;;;;;;;;2.00;0.00;;;;;27.81;41.18;100150.38;5047934;28;45510;-75
2023/09/22 11:31:18;;;;;;;;;0.67;0.67;;;;;27.77;41.64;100152.66;5055851;28;45288;-80